createdAt,value
2022-09-26T00:01:26.936Z,9.54
2022-09-26T00:03:56.776Z,9.54
2022-09-26T00:06:25.208Z,9.49
2022-09-26T00:08:54.144Z,9.46
2022-09-26T00:11:24.678Z,9.44
2022-09-26T00:13:53.769Z,9.47
2022-09-26T00:16:23.570Z,9.45
2022-09-26T00:18:51.809Z,9.45
2022-09-26T00:21:20.527Z,9.49
2022-09-26T00:23:48.571Z,9.39
2022-09-26T00:26:17.742Z,9.41
2022-09-26T00:28:45.718Z,9.48
2022-09-26T00:31:15.805Z,9.38
2022-09-26T00:33:45.404Z,9.45
2022-09-26T00:36:13.353Z,9.36
2022-09-26T00:38:41.291Z,9.39
2022-09-26T00:41:10.069Z,9.28
2022-09-26T00:43:39.415Z,9.38
2022-09-26T00:46:15.146Z,9.35
2022-09-26T00:48:45.548Z,9.33
2022-09-26T00:51:13.600Z,9.33
2022-09-26T00:53:44.989Z,9.35
2022-09-26T00:56:17.106Z,9.32
2022-09-26T00:58:47.330Z,9.29
2022-09-26T01:01:15.913Z,9.32
2022-09-26T01:03:45.663Z,9.31
2022-09-26T01:06:14.029Z,9.26
2022-09-26T01:08:45.244Z,9.27
2022-09-26T01:11:17.253Z,9.32
2022-09-26T01:13:46.383Z,9.28
2022-09-26T01:16:14.507Z,9.27
2022-09-26T01:18:42.627Z,9.32
2022-09-26T01:21:29.638Z,9.30
2022-09-26T01:24:22.510Z,9.32
2022-09-26T01:27:14.214Z,9.36
2022-09-26T01:30:10.873Z,9.35
2022-09-26T01:33:02.522Z,9.38
2022-09-26T01:36:04.217Z,9.34
2022-09-26T01:38:42.015Z,9.36
2022-09-26T01:41:25.639Z,9.33
2022-09-26T01:43:57.907Z,9.44
2022-09-26T01:46:32.156Z,9.38
2022-09-26T01:49:06.806Z,9.34
2022-09-26T01:51:38.601Z,9.38
2022-09-26T01:54:10.285Z,9.37
2022-09-26T01:56:40.538Z,9.37
2022-09-26T01:59:11.456Z,9.37
2022-09-26T02:01:44.327Z,9.42
2022-09-26T02:04:13.553Z,9.39
2022-09-26T02:06:44.729Z,9.44
2022-09-26T02:09:16.128Z,9.46
2022-09-26T02:11:45.749Z,9.52
2022-09-26T02:14:16.987Z,9.54
2022-09-26T02:16:49.024Z,9.53
2022-09-26T02:19:20.794Z,9.49
2022-09-26T02:21:48.889Z,9.53
2022-09-26T02:24:16.803Z,9.52
2022-09-26T02:26:45.177Z,9.51
2022-09-26T02:29:14.482Z,9.52
2022-09-26T02:31:49.251Z,9.45
2022-09-26T02:34:17.225Z,9.38
2022-09-26T02:36:46.330Z,9.42
2022-09-26T02:39:14.729Z,9.35
2022-09-26T02:41:49.796Z,9.37
2022-09-26T02:44:32.714Z,9.40
2022-09-26T02:47:14.407Z,9.38
2022-09-26T02:49:57.821Z,9.37
2022-09-26T02:52:36.466Z,9.40
2022-09-26T02:55:20.494Z,9.42
2022-09-26T02:57:54.350Z,9.45
2022-09-26T03:00:24.518Z,9.45
2022-09-26T03:02:58.261Z,9.43
2022-09-26T03:05:28.066Z,9.43
2022-09-26T03:07:58.966Z,9.47
2022-09-26T03:10:28.388Z,9.48
2022-09-26T03:12:57.760Z,9.53
2022-09-26T03:15:26.225Z,9.55
2022-09-26T03:17:56.256Z,9.48
2022-09-26T03:20:24.838Z,9.50
2022-09-26T03:22:53.034Z,9.53
2022-09-26T03:25:24.050Z,9.61
2022-09-26T03:27:52.383Z,9.65
2022-09-26T03:30:21.305Z,9.67
2022-09-26T03:32:49.350Z,9.71
2022-09-26T03:35:19.018Z,9.72
2022-09-26T03:37:47.906Z,9.78
2022-09-26T03:40:15.965Z,9.80
2022-09-26T03:42:44.053Z,9.81
2022-09-26T03:45:12.462Z,9.83
2022-09-26T03:47:41.957Z,9.82
2022-09-26T03:50:10.814Z,9.85
2022-09-26T03:52:40.138Z,9.89
2022-09-26T03:55:08.563Z,9.89
2022-09-26T03:57:36.470Z,9.90
2022-09-26T04:00:07.674Z,9.95
2022-09-26T04:02:35.951Z,9.99
2022-09-26T04:05:04.019Z,10.01
2022-09-26T04:07:32.152Z,10.04
2022-09-26T04:10:01.408Z,10.07
2022-09-26T04:12:29.295Z,10.03
2022-09-26T04:14:57.242Z,10.03
2022-09-26T04:17:25.295Z,10.02
2022-09-26T04:19:53.191Z,10.01
2022-09-26T04:22:21.121Z,10.02
2022-09-26T04:24:49.047Z,10.05
2022-09-26T04:27:18.702Z,9.98
2022-09-26T04:29:46.808Z,10.04
2022-09-26T04:32:14.958Z,10.06
2022-09-26T04:34:42.855Z,10.02
2022-09-26T04:37:12.116Z,10.08
2022-09-26T04:39:40.026Z,10.07
2022-09-26T04:42:07.914Z,10.04
2022-09-26T04:44:37.244Z,10.08
2022-09-26T04:47:05.342Z,10.05
2022-09-26T04:49:33.215Z,10.04
2022-09-26T04:52:01.195Z,10.09
2022-09-26T04:54:29.190Z,10.04
2022-09-26T04:56:57.047Z,10.07
2022-09-26T04:59:24.932Z,10.04
2022-09-26T05:01:54.936Z,10.05
2022-09-26T05:04:27.415Z,10.09
2022-09-26T05:06:57.844Z,10.09
2022-09-26T05:09:26.034Z,10.03
2022-09-26T05:11:54.011Z,10.08
2022-09-26T05:14:21.981Z,10.09
2022-09-26T05:16:49.991Z,10.14
2022-09-26T05:19:21.432Z,10.09
2022-09-26T05:21:49.319Z,10.11
2022-09-26T05:24:34.714Z,10.14
2022-09-26T05:27:02.923Z,10.14
2022-09-26T05:29:30.831Z,10.17
2022-09-26T05:31:59.878Z,10.17
2022-09-26T05:34:29.216Z,10.22
2022-09-26T05:36:57.200Z,10.21
2022-09-26T05:39:42.859Z,10.20
2022-09-26T05:42:11.000Z,10.27
2022-09-26T05:44:39.894Z,10.30
2022-09-26T05:47:08.647Z,10.28
2022-09-26T05:49:38.403Z,10.27
2022-09-26T05:52:06.549Z,10.33
2022-09-26T05:54:34.459Z,10.31
2022-09-26T05:57:02.318Z,10.33
2022-09-26T05:59:30.251Z,10.38
2022-09-26T06:01:58.651Z,10.36
2022-09-26T06:04:26.580Z,10.43
2022-09-26T06:06:55.854Z,10.37
2022-09-26T06:09:24.130Z,10.38
2022-09-26T06:11:52.049Z,10.39
2022-09-26T06:14:21.112Z,10.52
2022-09-26T06:16:49.089Z,10.57
2022-09-26T06:19:20.698Z,10.58
2022-09-26T06:21:50.846Z,10.54
2022-09-26T06:24:20.329Z,10.58
2022-09-26T06:26:48.211Z,10.52
2022-09-26T06:29:16.299Z,10.54
2022-09-26T06:31:44.837Z,10.54
2022-09-26T06:34:13.357Z,10.57
2022-09-26T06:36:41.267Z,10.57
2022-09-26T06:39:09.388Z,10.63
2022-09-26T06:41:38.786Z,10.66
2022-09-26T06:44:06.790Z,10.67
2022-09-26T06:46:35.428Z,10.68
2022-09-26T06:49:03.353Z,10.71
2022-09-26T06:51:31.939Z,10.71
2022-09-26T06:54:00.486Z,10.75
2022-09-26T06:56:28.464Z,10.70
2022-09-26T06:58:58.047Z,10.71
2022-09-26T07:01:26.102Z,10.74
2022-09-26T07:03:54.626Z,10.75
2022-09-26T07:06:22.597Z,10.70
2022-09-26T07:09:12.014Z,10.71
2022-09-26T07:12:10.074Z,10.80
2022-09-26T07:14:30.237Z,10.67
2022-09-26T07:16:58.186Z,10.70
2022-09-26T07:19:26.136Z,10.68
2022-09-26T07:21:55.020Z,10.69
2022-09-26T07:24:22.943Z,10.68
2022-09-26T07:26:51.268Z,10.76
2022-09-26T07:29:19.454Z,10.77
2022-09-26T07:31:48.809Z,10.84
2022-09-26T07:34:18.578Z,10.79
2022-09-26T07:36:47.619Z,10.82
2022-09-26T07:39:15.805Z,10.84
2022-09-26T07:41:46.026Z,10.86
2022-09-26T07:47:21.108Z,10.92
2022-09-26T07:50:06.619Z,10.91
2022-09-26T07:52:34.564Z,10.93
2022-09-26T07:55:02.473Z,10.92
2022-09-26T07:57:33.187Z,11.01
2022-09-26T08:00:01.173Z,10.98
2022-09-26T08:02:34.405Z,11.08
2022-09-26T08:05:04.024Z,11.14
2022-09-26T08:07:37.043Z,11.18
2022-09-26T08:10:07.067Z,11.24
2022-09-26T08:12:38.653Z,11.32
2022-09-26T08:15:07.918Z,11.40
2022-09-26T08:17:38.241Z,11.51
2022-09-26T08:20:07.251Z,11.61
2022-09-26T08:22:35.467Z,11.61
2022-09-26T08:25:04.259Z,11.66
2022-09-26T08:27:33.736Z,11.77
2022-09-26T08:30:03.261Z,11.88
2022-09-26T08:32:32.350Z,12.01
2022-09-26T08:35:01.711Z,12.11
2022-09-26T08:37:31.165Z,12.05
2022-09-26T08:40:00.829Z,12.05
2022-09-26T08:42:38.862Z,12.11
2022-09-26T08:45:47.489Z,12.05
2022-09-26T08:48:27.310Z,12.01
2022-09-26T08:51:01.489Z,12.08
2022-09-26T08:53:33.315Z,12.11
2022-09-26T08:56:02.437Z,12.11
2022-09-26T08:58:36.211Z,12.11
2022-09-26T09:01:05.981Z,12.22
2022-09-26T09:03:37.461Z,12.30
2022-09-26T09:06:08.878Z,12.24
2022-09-26T09:08:38.976Z,12.30
2022-09-26T09:11:13.968Z,12.45
2022-09-26T09:13:57.138Z,12.47
2022-09-26T09:16:44.774Z,12.54
2022-09-26T09:19:17.687Z,12.60
2022-09-26T09:22:00.461Z,12.49
2022-09-26T09:24:43.034Z,12.45
2022-09-26T09:30:17.879Z,12.86
2022-09-26T09:32:49.614Z,12.79
2022-09-26T09:35:20.635Z,12.99
2022-09-26T09:37:51.941Z,12.89
2022-09-26T09:40:26.693Z,13.14
2022-09-26T09:42:56.757Z,13.05
2022-09-26T09:45:29.757Z,13.00
2022-09-26T09:47:58.240Z,13.01
2022-09-26T09:50:37.361Z,12.84
2022-09-26T09:53:14.947Z,12.78
2022-09-26T09:55:48.991Z,12.80
2022-09-26T09:58:35.929Z,12.91
2022-09-26T10:01:09.854Z,12.78
2022-09-26T10:03:42.006Z,12.61
2022-09-26T10:06:44.525Z,12.68
2022-09-26T10:09:39.329Z,12.73
2022-09-26T10:11:54.214Z,12.61
2022-09-26T10:14:28.842Z,12.73
2022-09-26T10:17:18.629Z,12.57
2022-09-26T10:19:46.533Z,12.66
2022-09-26T10:22:24.188Z,12.75
2022-09-26T10:24:55.077Z,12.84
2022-09-26T10:27:32.142Z,12.94
2022-09-26T10:30:01.327Z,12.79
2022-09-26T10:32:30.315Z,12.84
2022-09-26T10:35:07.802Z,12.95
2022-09-26T10:37:38.094Z,12.98
2022-09-26T10:40:41.596Z,12.80
2022-09-26T10:43:31.889Z,13.09
2022-09-26T10:46:10.322Z,13.07
2022-09-26T10:48:48.246Z,13.11
2022-09-26T10:51:24.473Z,13.22
2022-09-26T10:53:53.759Z,13.00
2022-09-26T10:56:27.501Z,12.72
2022-09-26T10:58:58.394Z,12.49
2022-09-26T11:01:30.212Z,12.56
2022-09-26T11:04:01.629Z,12.47
2022-09-26T11:06:32.554Z,12.52
2022-09-26T11:09:03.386Z,12.66
2022-09-26T11:11:36.825Z,12.31
2022-09-26T11:14:07.758Z,12.21
2022-09-26T11:16:52.120Z,12.31
2022-09-26T11:19:44.638Z,12.16
2022-09-26T11:22:16.406Z,11.97
2022-09-26T11:24:48.578Z,11.98
2022-09-26T11:27:23.849Z,11.92
2022-09-26T11:29:55.618Z,11.92
2022-09-26T11:32:29.258Z,11.87
2022-09-26T11:35:02.323Z,12.18
2022-09-26T11:37:42.240Z,12.04
2022-09-26T11:40:29.922Z,11.87
2022-09-26T11:43:11.117Z,11.88
2022-09-26T11:45:52.069Z,11.96
2022-09-26T11:48:39.261Z,12.06
2022-09-26T11:51:15.826Z,12.20
2022-09-26T11:53:56.386Z,12.33
2022-09-26T11:56:44.596Z,12.19
2022-09-26T11:59:29.702Z,12.48
2022-09-26T12:02:15.748Z,12.69
2022-09-26T12:04:54.345Z,12.52
2022-09-26T12:07:26.226Z,12.47
2022-09-26T12:10:07.365Z,12.33
2022-09-26T12:12:41.893Z,12.40
2022-09-26T12:15:20.357Z,12.43
2022-09-26T12:17:56.850Z,12.41
2022-09-26T12:20:31.695Z,12.43
2022-09-26T12:23:03.934Z,12.36
2022-09-26T12:25:37.478Z,12.36
2022-09-26T12:28:17.331Z,12.45
2022-09-26T12:30:54.018Z,12.32
2022-09-26T12:33:52.946Z,12.52
2022-09-26T12:36:28.150Z,12.34
2022-09-26T12:39:06.057Z,12.37
2022-09-26T12:41:45.842Z,12.45
2022-09-26T12:44:43.362Z,12.37
2022-09-26T12:47:22.109Z,12.41
2022-09-26T12:50:08.131Z,12.39
2022-09-26T12:53:02.414Z,12.47
2022-09-26T12:55:36.040Z,12.23
2022-09-26T12:58:12.494Z,12.21
2022-09-26T13:00:43.964Z,12.30
2022-09-26T13:03:35.542Z,12.21
2022-09-26T13:06:29.540Z,12.29
2022-09-26T13:09:05.027Z,12.11
2022-09-26T13:11:40.345Z,12.12
2022-09-26T13:14:36.259Z,12.27
2022-09-26T13:17:10.231Z,12.04
2022-09-26T13:19:42.298Z,12.15
2022-09-26T13:22:29.469Z,12.12
2022-09-26T13:25:01.137Z,12.13
2022-09-26T13:27:34.481Z,12.15
2022-09-26T13:30:05.085Z,12.19
2022-09-26T13:32:36.904Z,11.93
2022-09-26T13:35:13.902Z,11.90
2022-09-26T13:37:48.022Z,11.94
2022-09-26T13:40:29.838Z,11.85
2022-09-26T13:43:09.569Z,11.81
2022-09-26T13:45:49.299Z,11.82
2022-09-26T13:48:22.216Z,11.83
2022-09-26T13:50:56.189Z,11.77
2022-09-26T13:53:28.881Z,11.88
2022-09-26T13:56:48.447Z,11.73
2022-09-26T13:59:34.528Z,11.77
2022-09-26T14:02:19.510Z,11.85
2022-09-26T14:04:48.080Z,11.77
2022-09-26T14:07:50.590Z,11.69
2022-09-26T14:10:35.560Z,11.78
2022-09-26T14:13:19.112Z,11.68
2022-09-26T14:16:01.373Z,11.73
2022-09-26T14:18:47.185Z,11.68
2022-09-26T14:21:23.812Z,11.68
2022-09-26T14:24:42.808Z,11.65
2022-09-26T14:27:29.342Z,11.74
2022-09-26T14:30:01.717Z,11.64
2022-09-26T14:32:32.911Z,11.62
2022-09-26T14:35:01.871Z,11.63
2022-09-26T14:37:34.720Z,11.53
2022-09-26T14:40:19.408Z,11.48
2022-09-26T14:42:54.716Z,11.47
2022-09-26T14:45:26.486Z,11.43
2022-09-26T14:48:01.411Z,11.60
2022-09-26T14:50:35.608Z,11.48
2022-09-26T14:53:11.465Z,11.34
2022-09-26T14:55:54.702Z,11.36
2022-09-26T14:58:32.066Z,11.50
2022-09-26T15:01:03.525Z,11.48
2022-09-26T15:03:31.898Z,11.31
2022-09-26T15:06:00.515Z,11.31
2022-09-26T15:08:30.226Z,11.41
2022-09-26T15:11:00.774Z,11.26
2022-09-26T15:13:34.280Z,11.36
2022-09-26T15:16:22.908Z,11.27
2022-09-26T15:18:53.450Z,11.23
2022-09-26T15:21:27.562Z,11.17
2022-09-26T15:23:56.766Z,11.17
2022-09-26T15:26:28.131Z,11.15
2022-09-26T15:28:57.689Z,11.13
2022-09-26T15:31:30.593Z,11.14
2022-09-26T15:34:04.380Z,11.07
2022-09-26T15:36:34.258Z,11.21
2022-09-26T15:39:03.228Z,11.09
2022-09-26T15:41:49.985Z,11.04
2022-09-26T15:44:23.765Z,11.09
2022-09-26T15:46:52.397Z,11.10
2022-09-26T15:49:22.253Z,11.07
2022-09-26T15:51:53.492Z,11.04
2022-09-26T15:54:26.307Z,10.98
2022-09-26T15:56:58.823Z,11.18
2022-09-26T15:59:31.607Z,11.03
2022-09-26T16:02:01.297Z,11.05
2022-09-26T16:04:30.252Z,10.97
2022-09-26T16:06:59.939Z,10.93
2022-09-26T16:09:33.047Z,11.02
2022-09-26T16:12:04.721Z,10.96
2022-09-26T16:14:40.365Z,10.98
2022-09-26T16:17:30.110Z,10.94
2022-09-26T16:19:59.638Z,10.93
2022-09-26T16:22:40.616Z,10.97
2022-09-26T16:25:29.952Z,10.92
2022-09-26T16:28:32.217Z,10.88
2022-09-26T16:31:17.822Z,10.87
2022-09-26T16:33:52.553Z,10.87
2022-09-26T16:36:24.895Z,10.92
2022-09-26T16:38:54.517Z,10.90
2022-09-26T16:41:49.006Z,10.89
2022-09-26T16:44:27.389Z,10.99
2022-09-26T16:47:02.701Z,10.94
2022-09-26T16:49:34.555Z,10.98
2022-09-26T16:52:21.486Z,10.91
2022-09-26T16:54:49.858Z,10.91
2022-09-26T16:57:21.586Z,10.92
2022-09-26T16:59:49.752Z,10.90
2022-09-26T17:02:18.341Z,10.92
2022-09-26T17:04:47.410Z,10.91
2022-09-26T17:07:16.573Z,10.91
2022-09-26T17:09:44.564Z,10.97
2022-09-26T17:12:18.662Z,10.93
2022-09-26T17:14:49.227Z,10.92
2022-09-26T17:17:22.275Z,10.98
2022-09-26T17:19:58.234Z,10.96
2022-09-26T17:22:27.249Z,10.92
2022-09-26T17:24:55.782Z,10.94
2022-09-26T17:27:27.072Z,10.96
2022-09-26T17:30:00.386Z,10.94
2022-09-26T17:32:30.759Z,10.92
2022-09-26T17:34:59.934Z,10.96
2022-09-26T17:37:28.514Z,11.01
2022-09-26T17:39:56.683Z,10.95
2022-09-26T17:42:25.279Z,11.00
2022-09-26T17:44:54.003Z,10.98
2022-09-26T17:47:22.718Z,10.98
2022-09-26T17:49:56.173Z,11.01
2022-09-26T17:52:26.971Z,11.01
2022-09-26T17:54:57.470Z,11.00
2022-09-26T17:57:28.014Z,11.04
2022-09-26T17:59:56.070Z,11.03
2022-09-26T18:02:30.446Z,11.01
2022-09-26T18:05:04.546Z,11.00
2022-09-26T18:07:36.367Z,11.03
2022-09-26T18:10:07.327Z,11.00
2022-09-26T18:12:35.697Z,10.98
2022-09-26T18:15:04.586Z,11.00
2022-09-26T18:17:32.766Z,10.99
2022-09-26T18:20:02.666Z,10.98
2022-09-26T18:22:32.835Z,10.95
2022-09-26T18:25:05.509Z,10.99
2022-09-26T18:27:36.866Z,11.00
2022-09-26T18:30:07.378Z,10.96
2022-09-26T18:32:39.112Z,10.93
2022-09-26T18:35:14.813Z,10.99
2022-09-26T18:37:43.649Z,10.96
2022-09-26T18:40:15.230Z,10.95
2022-09-26T18:42:44.496Z,10.95
2022-09-26T18:45:15.163Z,10.96
2022-09-26T18:47:45.348Z,10.94
2022-09-26T18:50:23.575Z,10.93
2022-09-26T18:52:52.157Z,10.93
2022-09-26T18:55:38.893Z,10.92
2022-09-26T18:58:24.069Z,10.91
2022-09-26T19:00:54.654Z,10.96
2022-09-26T19:03:23.363Z,10.93
2022-09-26T19:05:54.840Z,10.90
2022-09-26T19:08:33.548Z,10.87
2022-09-26T19:11:03.995Z,10.92
2022-09-26T19:13:32.543Z,10.91
2022-09-26T19:16:00.618Z,10.93
2022-09-26T19:18:28.588Z,10.92
2022-09-26T19:20:57.982Z,10.94
2022-09-26T19:23:27.614Z,10.86
2022-09-26T19:25:55.662Z,10.87
2022-09-26T19:28:26.311Z,10.91
2022-09-26T19:30:54.357Z,10.84
2022-09-26T19:33:22.677Z,10.84
2022-09-26T19:35:50.607Z,10.82
2022-09-26T19:38:24.087Z,10.84
2022-09-26T19:40:53.778Z,10.81
2022-09-26T19:43:22.690Z,10.83
2022-09-26T19:45:53.730Z,10.84
2022-09-26T19:48:23.846Z,10.78
2022-09-26T19:50:52.631Z,10.75
2022-09-26T19:53:23.745Z,10.79
2022-09-26T19:55:51.787Z,10.83
2022-09-26T19:58:20.791Z,10.76
2022-09-26T20:00:51.269Z,10.76
2022-09-26T20:03:20.905Z,10.76
2022-09-26T20:05:50.060Z,10.73
2022-09-26T20:08:22.185Z,10.75
2022-09-26T20:10:51.925Z,10.73
2022-09-26T20:13:20.322Z,10.72
2022-09-26T20:15:48.901Z,10.75
2022-09-26T20:18:20.704Z,10.74
2022-09-26T20:20:51.830Z,10.73
2022-09-26T20:23:22.682Z,10.75
2022-09-26T20:25:53.267Z,10.75
2022-09-26T20:28:21.246Z,10.77
2022-09-26T20:30:56.767Z,10.79
2022-09-26T20:33:26.308Z,10.78
2022-09-26T20:36:00.261Z,10.73
2022-09-26T20:38:33.718Z,10.74
2022-09-26T20:41:12.047Z,10.74
2022-09-26T20:43:41.039Z,10.72
2022-09-26T20:46:10.256Z,10.76
2022-09-26T20:48:38.573Z,10.78
2022-09-26T20:51:08.547Z,10.73
2022-09-26T20:53:36.758Z,10.72
2022-09-26T20:56:10.048Z,10.75
2022-09-26T20:58:37.981Z,10.76
2022-09-26T21:01:06.052Z,10.72
2022-09-26T21:03:34.091Z,10.73
2022-09-26T21:06:02.026Z,10.73
2022-09-26T21:08:31.370Z,10.73
2022-09-26T21:10:59.748Z,10.74
2022-09-26T21:13:29.124Z,10.74
2022-09-26T21:15:57.058Z,10.72
2022-09-26T21:18:26.605Z,10.73
2022-09-26T21:20:55.332Z,10.73
2022-09-26T21:23:24.189Z,10.75
2022-09-26T21:25:52.120Z,10.74
2022-09-26T21:28:26.308Z,10.74
2022-09-26T21:30:56.401Z,10.75
2022-09-26T21:33:24.554Z,10.75
2022-09-26T21:35:52.842Z,10.78
2022-09-26T21:38:21.917Z,10.75
2022-09-26T21:40:52.830Z,10.78
2022-09-26T21:43:22.893Z,10.75
2022-09-26T21:45:50.894Z,10.77
2022-09-26T21:48:20.242Z,10.75
2022-09-26T21:50:57.386Z,10.76
2022-09-26T21:53:28.689Z,10.74
2022-09-26T21:56:02.564Z,10.80
2022-09-26T21:58:38.086Z,10.75
2022-09-26T22:01:06.358Z,10.72
2022-09-26T22:03:35.904Z,10.72
2022-09-26T22:06:07.384Z,10.74
2022-09-26T22:08:35.742Z,10.74
2022-09-26T22:11:03.845Z,10.72
2022-09-26T22:13:33.140Z,10.72
2022-09-26T22:16:06.225Z,10.75
2022-09-26T22:18:36.746Z,10.74
2022-09-26T22:21:05.095Z,10.75
2022-09-26T22:23:33.499Z,10.72
2022-09-26T22:26:01.995Z,10.72
2022-09-26T22:28:30.321Z,10.72
2022-09-26T22:31:01.819Z,10.73
2022-09-26T22:33:30.226Z,10.73
2022-09-26T22:35:59.684Z,10.73
2022-09-26T22:38:28.056Z,10.72
2022-09-26T22:40:57.155Z,10.78
2022-09-26T22:43:25.481Z,10.77
2022-09-26T22:45:54.289Z,10.77
2022-09-26T22:48:22.270Z,10.71
2022-09-26T22:50:50.246Z,10.72
2022-09-26T22:53:19.604Z,10.68
2022-09-26T22:55:54.755Z,10.71
2022-09-26T22:58:23.406Z,10.67
2022-09-26T23:00:51.372Z,10.67
2022-09-26T23:03:19.663Z,10.63
2022-09-26T23:05:48.481Z,10.65
2022-09-26T23:08:16.437Z,10.67
2022-09-26T23:10:51.308Z,10.68
2022-09-26T23:13:19.378Z,10.67
2022-09-26T23:15:47.555Z,10.67
2022-09-26T23:18:15.942Z,10.60
2022-09-26T23:20:44.862Z,10.62
2022-09-26T23:23:14.336Z,10.55
2022-09-26T23:25:46.935Z,10.55
2022-09-26T23:28:16.753Z,10.59
2022-09-26T23:30:45.422Z,10.56
2022-09-26T23:33:13.370Z,10.52
2022-09-26T23:35:41.367Z,10.56
2022-09-26T23:38:09.429Z,10.58
2022-09-26T23:40:38.645Z,10.58
2022-09-26T23:43:06.622Z,10.55
2022-09-26T23:45:36.122Z,10.59
2022-09-26T23:48:04.205Z,10.52
2022-09-26T23:50:32.188Z,10.45
2022-09-26T23:53:04.389Z,10.50
2022-09-26T23:55:33.910Z,10.45
2022-09-26T23:58:01.847Z,10.57
